sensor_id;sensor_type;location;lat;lon;timestamp;temperature;humidity
35305;DHT22;26433;48.034;-1.764;2022-08-19T00:04:49;21.10;75.20
35305;DHT22;26433;48.034;-1.764;2022-08-19T00:09:56;21.00;75.40
35305;DHT22;26433;48.034;-1.764;2022-08-19T00:15:00;20.90;75.70
35305;DHT22;26433;48.034;-1.764;2022-08-19T00:20:04;20.80;76.00
35305;DHT22;26433;48.034;-1.764;2022-08-19T00:25:09;20.80;76.30
35305;DHT22;26433;48.034;-1.764;2022-08-19T00:30:13;20.80;76.40
35305;DHT22;26433;48.034;-1.764;2022-08-19T00:35:17;20.80;76.70
35305;DHT22;26433;48.034;-1.764;2022-08-19T00:40:22;20.80;76.60
35305;DHT22;26433;48.034;-1.764;2022-08-19T00:45:28;20.90;76.40
35305;DHT22;26433;48.034;-1.764;2022-08-19T00:50:39;20.90;76.60
35305;DHT22;26433;48.034;-1.764;2022-08-19T00:55:56;21.00;77.00
35305;DHT22;26433;48.034;-1.764;2022-08-19T01:01:02;21.00;77.20
35305;DHT22;26433;48.034;-1.764;2022-08-19T01:06:06;21.00;77.40
35305;DHT22;26433;48.034;-1.764;2022-08-19T01:11:12;21.00;77.80
35305;DHT22;26433;48.034;-1.764;2022-08-19T01:16:17;21.00;78.00
35305;DHT22;26433;48.034;-1.764;2022-08-19T01:21:27;21.10;78.30
35305;DHT22;26433;48.034;-1.764;2022-08-19T01:26:38;21.10;78.70
35305;DHT22;26433;48.034;-1.764;2022-08-19T01:31:44;21.10;79.20
35305;DHT22;26433;48.034;-1.764;2022-08-19T01:36:48;21.10;79.40
35305;DHT22;26433;48.034;-1.764;2022-08-19T01:41:53;21.10;79.60
35305;DHT22;26433;48.034;-1.764;2022-08-19T01:46:57;21.10;80.10
35305;DHT22;26433;48.034;-1.764;2022-08-19T01:52:02;21.10;80.40
35305;DHT22;26433;48.034;-1.764;2022-08-19T01:57:11;21.10;80.90
35305;DHT22;26433;48.034;-1.764;2022-08-19T02:02:15;21.10;81.10
35305;DHT22;26433;48.034;-1.764;2022-08-19T02:07:19;21.00;81.20
35305;DHT22;26433;48.034;-1.764;2022-08-19T02:12:24;21.10;81.30
35305;DHT22;26433;48.034;-1.764;2022-08-19T02:17:29;21.20;81.30
35305;DHT22;26433;48.034;-1.764;2022-08-19T02:22:33;21.20;81.30
35305;DHT22;26433;48.034;-1.764;2022-08-19T02:27:40;21.20;81.60
35305;DHT22;26433;48.034;-1.764;2022-08-19T02:32:44;21.20;82.00
35305;DHT22;26433;48.034;-1.764;2022-08-19T02:37:48;21.10;82.20
35305;DHT22;26433;48.034;-1.764;2022-08-19T02:43:10;21.10;82.40
35305;DHT22;26433;48.034;-1.764;2022-08-19T02:48:14;21.10;82.70
35305;DHT22;26433;48.034;-1.764;2022-08-19T02:53:26;20.90;83.40
35305;DHT22;26433;48.034;-1.764;2022-08-19T02:58:31;20.90;84.00
35305;DHT22;26433;48.034;-1.764;2022-08-19T03:03:35;20.90;84.10
35305;DHT22;26433;48.034;-1.764;2022-08-19T03:08:40;20.90;84.20
35305;DHT22;26433;48.034;-1.764;2022-08-19T03:13:46;21.00;84.50
35305;DHT22;26433;48.034;-1.764;2022-08-19T03:18:52;21.00;84.70
35305;DHT22;26433;48.034;-1.764;2022-08-19T03:23:57;21.00;84.70
35305;DHT22;26433;48.034;-1.764;2022-08-19T03:29:03;21.00;85.00
35305;DHT22;26433;48.034;-1.764;2022-08-19T03:34:07;21.00;85.30
35305;DHT22;26433;48.034;-1.764;2022-08-19T03:39:11;20.90;85.60
35305;DHT22;26433;48.034;-1.764;2022-08-19T03:44:19;20.90;85.80
35305;DHT22;26433;48.034;-1.764;2022-08-19T03:49:27;20.90;85.70
35305;DHT22;26433;48.034;-1.764;2022-08-19T03:54:30;20.90;85.80
35305;DHT22;26433;48.034;-1.764;2022-08-19T03:59:37;20.90;86.20
35305;DHT22;26433;48.034;-1.764;2022-08-19T04:04:42;20.90;86.60
35305;DHT22;26433;48.034;-1.764;2022-08-19T04:09:46;20.90;86.80
35305;DHT22;26433;48.034;-1.764;2022-08-19T04:14:51;20.90;86.80
35305;DHT22;26433;48.034;-1.764;2022-08-19T04:19:55;20.90;87.30
35305;DHT22;26433;48.034;-1.764;2022-08-19T04:24:58;20.80;87.70
35305;DHT22;26433;48.034;-1.764;2022-08-19T04:30:04;20.80;88.00
35305;DHT22;26433;48.034;-1.764;2022-08-19T04:35:08;20.70;88.30
35305;DHT22;26433;48.034;-1.764;2022-08-19T04:40:19;20.70;88.60
35305;DHT22;26433;48.034;-1.764;2022-08-19T04:45:42;20.80;88.90
35305;DHT22;26433;48.034;-1.764;2022-08-19T04:50:47;20.70;89.40
35305;DHT22;26433;48.034;-1.764;2022-08-19T04:55:50;20.70;89.50
35305;DHT22;26433;48.034;-1.764;2022-08-19T05:00:56;20.80;89.60
35305;DHT22;26433;48.034;-1.764;2022-08-19T05:06:04;20.80;89.50
35305;DHT22;26433;48.034;-1.764;2022-08-19T05:11:13;20.80;89.60
35305;DHT22;26433;48.034;-1.764;2022-08-19T05:16:20;20.80;90.00
35305;DHT22;26433;48.034;-1.764;2022-08-19T05:21:25;20.70;90.20
35305;DHT22;26433;48.034;-1.764;2022-08-19T05:26:49;20.80;90.40
35305;DHT22;26433;48.034;-1.764;2022-08-19T05:31:55;20.70;90.40
35305;DHT22;26433;48.034;-1.764;2022-08-19T05:36:59;20.70;90.50
35305;DHT22;26433;48.034;-1.764;2022-08-19T05:42:06;20.70;90.60
35305;DHT22;26433;48.034;-1.764;2022-08-19T05:47:13;20.70;90.60
35305;DHT22;26433;48.034;-1.764;2022-08-19T05:52:17;20.80;90.60
35305;DHT22;26433;48.034;-1.764;2022-08-19T05:57:27;20.80;90.70
35305;DHT22;26433;48.034;-1.764;2022-08-19T06:02:33;20.80;90.70
35305;DHT22;26433;48.034;-1.764;2022-08-19T06:07:38;20.80;90.80
35305;DHT22;26433;48.034;-1.764;2022-08-19T06:12:42;20.90;90.80
35305;DHT22;26433;48.034;-1.764;2022-08-19T06:17:47;20.80;90.90
35305;DHT22;26433;48.034;-1.764;2022-08-19T06:22:51;20.80;91.00
35305;DHT22;26433;48.034;-1.764;2022-08-19T06:27:55;20.80;91.00
35305;DHT22;26433;48.034;-1.764;2022-08-19T06:33:17;20.90;90.90
35305;DHT22;26433;48.034;-1.764;2022-08-19T06:38:21;20.90;91.00
35305;DHT22;26433;48.034;-1.764;2022-08-19T06:43:25;20.90;90.90
35305;DHT22;26433;48.034;-1.764;2022-08-19T06:48:31;21.10;90.90
35305;DHT22;26433;48.034;-1.764;2022-08-19T06:53:46;21.10;90.70
35305;DHT22;26433;48.034;-1.764;2022-08-19T06:58:55;21.10;90.80
35305;DHT22;26433;48.034;-1.764;2022-08-19T07:04:00;21.10;90.90
35305;DHT22;26433;48.034;-1.764;2022-08-19T07:09:08;21.20;90.80
35305;DHT22;26433;48.034;-1.764;2022-08-19T07:14:13;21.20;90.90
35305;DHT22;26433;48.034;-1.764;2022-08-19T07:19:24;21.20;91.00
35305;DHT22;26433;48.034;-1.764;2022-08-19T07:24:30;21.20;91.00
35305;DHT22;26433;48.034;-1.764;2022-08-19T07:29:35;21.30;90.80
35305;DHT22;26433;48.034;-1.764;2022-08-19T07:34:41;21.50;90.80
35305;DHT22;26433;48.034;-1.764;2022-08-19T07:39:44;21.50;90.80
35305;DHT22;26433;48.034;-1.764;2022-08-19T07:44:48;21.60;90.70
35305;DHT22;26433;48.034;-1.764;2022-08-19T07:49:53;21.80;90.60
35305;DHT22;26433;48.034;-1.764;2022-08-19T07:54:57;21.80;90.50
35305;DHT22;26433;48.034;-1.764;2022-08-19T08:00:04;22.00;90.50
35305;DHT22;26433;48.034;-1.764;2022-08-19T08:05:14;22.10;90.40
35305;DHT22;26433;48.034;-1.764;2022-08-19T08:10:36;22.30;90.10
35305;DHT22;26433;48.034;-1.764;2022-08-19T08:15:43;22.40;89.90
35305;DHT22;26433;48.034;-1.764;2022-08-19T08:20:48;22.40;90.00
35305;DHT22;26433;48.034;-1.764;2022-08-19T08:25:54;22.40;90.10
35305;DHT22;26433;48.034;-1.764;2022-08-19T08:30:59;22.50;90.10
35305;DHT22;26433;48.034;-1.764;2022-08-19T08:36:04;22.60;89.80
35305;DHT22;26433;48.034;-1.764;2022-08-19T08:41:17;22.60;89.80
35305;DHT22;26433;48.034;-1.764;2022-08-19T08:46:28;22.70;89.60
35305;DHT22;26433;48.034;-1.764;2022-08-19T08:51:38;22.80;89.40
35305;DHT22;26433;48.034;-1.764;2022-08-19T08:56:45;23.00;89.20
35305;DHT22;26433;48.034;-1.764;2022-08-19T09:01:52;23.20;88.60
35305;DHT22;26433;48.034;-1.764;2022-08-19T09:07:10;23.50;87.70
35305;DHT22;26433;48.034;-1.764;2022-08-19T09:12:42;24.10;85.80
35305;DHT22;26433;48.034;-1.764;2022-08-19T09:17:48;24.60;84.20
35305;DHT22;26433;48.034;-1.764;2022-08-19T09:22:53;24.80;83.10
35305;DHT22;26433;48.034;-1.764;2022-08-19T09:27:57;24.90;82.70
35305;DHT22;26433;48.034;-1.764;2022-08-19T09:33:07;24.80;82.80
35305;DHT22;26433;48.034;-1.764;2022-08-19T09:38:12;24.80;83.00
35305;DHT22;26433;48.034;-1.764;2022-08-19T09:43:25;24.80;83.10
35305;DHT22;26433;48.034;-1.764;2022-08-19T09:49:20;24.90;83.00
35305;DHT22;26433;48.034;-1.764;2022-08-19T10:00:18;25.00;83.20
35305;DHT22;26433;48.034;-1.764;2022-08-19T10:05:28;24.50;83.80
35305;DHT22;26433;48.034;-1.764;2022-08-19T10:10:52;24.30;84.00
35305;DHT22;26433;48.034;-1.764;2022-08-19T10:22:18;24.30;83.70
35305;DHT22;26433;48.034;-1.764;2022-08-19T10:27:26;24.40;83.00
35305;DHT22;26433;48.034;-1.764;2022-08-19T10:32:33;24.50;82.60
35305;DHT22;26433;48.034;-1.764;2022-08-19T10:37:39;24.40;82.50
35305;DHT22;26433;48.034;-1.764;2022-08-19T10:42:58;24.40;83.00
35305;DHT22;26433;48.034;-1.764;2022-08-19T10:48:03;24.30;83.30
35305;DHT22;26433;48.034;-1.764;2022-08-19T10:53:08;24.30;83.60
35305;DHT22;26433;48.034;-1.764;2022-08-19T10:58:13;24.30;83.60
35305;DHT22;26433;48.034;-1.764;2022-08-19T11:03:17;24.40;83.10
35305;DHT22;26433;48.034;-1.764;2022-08-19T11:08:22;24.20;83.10
35305;DHT22;26433;48.034;-1.764;2022-08-19T11:13:26;24.20;83.70
35305;DHT22;26433;48.034;-1.764;2022-08-19T11:18:30;24.10;84.40
35305;DHT22;26433;48.034;-1.764;2022-08-19T11:23:35;24.30;84.10
35305;DHT22;26433;48.034;-1.764;2022-08-19T11:28:39;24.80;82.60
35305;DHT22;26433;48.034;-1.764;2022-08-19T11:33:43;25.10;81.10
35305;DHT22;26433;48.034;-1.764;2022-08-19T11:38:51;25.10;80.80
35305;DHT22;26433;48.034;-1.764;2022-08-19T11:43:55;25.10;81.10
35305;DHT22;26433;48.034;-1.764;2022-08-19T11:49:00;24.90;81.80
35305;DHT22;26433;48.034;-1.764;2022-08-19T11:54:06;24.80;81.90
35305;DHT22;26433;48.034;-1.764;2022-08-19T11:59:10;24.70;82.30
35305;DHT22;26433;48.034;-1.764;2022-08-19T12:04:16;24.40;82.70
35305;DHT22;26433;48.034;-1.764;2022-08-19T12:09:22;24.20;83.50
35305;DHT22;26433;48.034;-1.764;2022-08-19T12:14:26;23.90;84.70
35305;DHT22;26433;48.034;-1.764;2022-08-19T12:19:32;23.60;85.80
35305;DHT22;26433;48.034;-1.764;2022-08-19T12:24:37;23.60;86.50
35305;DHT22;26433;48.034;-1.764;2022-08-19T12:29:41;23.70;86.30
35305;DHT22;26433;48.034;-1.764;2022-08-19T12:34:45;23.70;86.20
35305;DHT22;26433;48.034;-1.764;2022-08-19T12:39:50;23.70;86.30
35305;DHT22;26433;48.034;-1.764;2022-08-19T12:44:54;23.70;86.50
35305;DHT22;26433;48.034;-1.764;2022-08-19T12:49:58;23.70;86.20
35305;DHT22;26433;48.034;-1.764;2022-08-19T12:55:09;23.70;86.10
35305;DHT22;26433;48.034;-1.764;2022-08-19T13:00:14;23.70;87.10
35305;DHT22;26433;48.034;-1.764;2022-08-19T13:05:20;23.70;87.50
35305;DHT22;26433;48.034;-1.764;2022-08-19T13:10:28;23.50;87.90
35305;DHT22;26433;48.034;-1.764;2022-08-19T13:15:33;23.50;88.40
35305;DHT22;26433;48.034;-1.764;2022-08-19T13:20:38;23.50;88.80
35305;DHT22;26433;48.034;-1.764;2022-08-19T13:25:44;23.40;89.10
35305;DHT22;26433;48.034;-1.764;2022-08-19T13:30:49;23.50;89.30
35305;DHT22;26433;48.034;-1.764;2022-08-19T13:36:10;23.50;88.80
35305;DHT22;26433;48.034;-1.764;2022-08-19T13:41:15;23.50;88.70
35305;DHT22;26433;48.034;-1.764;2022-08-19T13:46:21;23.50;88.80
35305;DHT22;26433;48.034;-1.764;2022-08-19T13:51:24;23.40;89.10
35305;DHT22;26433;48.034;-1.764;2022-08-19T13:56:29;23.20;89.30
35305;DHT22;26433;48.034;-1.764;2022-08-19T14:01:33;23.10;90.00
35305;DHT22;26433;48.034;-1.764;2022-08-19T14:06:37;23.00;90.20
35305;DHT22;26433;48.034;-1.764;2022-08-19T14:11:42;23.00;90.30
35305;DHT22;26433;48.034;-1.764;2022-08-19T14:16:48;23.10;90.20
35305;DHT22;26433;48.034;-1.764;2022-08-19T14:21:51;23.00;90.30
35305;DHT22;26433;48.034;-1.764;2022-08-19T14:26:57;23.00;90.50
35305;DHT22;26433;48.034;-1.764;2022-08-19T14:32:02;23.00;90.70
35305;DHT22;26433;48.034;-1.764;2022-08-19T14:37:06;23.10;90.70
35305;DHT22;26433;48.034;-1.764;2022-08-19T14:42:17;23.10;90.70
35305;DHT22;26433;48.034;-1.764;2022-08-19T14:47:20;23.00;90.90
35305;DHT22;26433;48.034;-1.764;2022-08-19T14:52:24;23.10;91.10
35305;DHT22;26433;48.034;-1.764;2022-08-19T14:57:29;23.10;91.10
35305;DHT22;26433;48.034;-1.764;2022-08-19T15:02:33;23.20;91.10
35305;DHT22;26433;48.034;-1.764;2022-08-19T15:07:37;23.30;90.90
35305;DHT22;26433;48.034;-1.764;2022-08-19T15:12:42;23.50;90.80
35305;DHT22;26433;48.034;-1.764;2022-08-19T15:17:52;23.60;90.40
35305;DHT22;26433;48.034;-1.764;2022-08-19T15:22:56;23.70;90.30
35305;DHT22;26433;48.034;-1.764;2022-08-19T15:28:03;23.50;90.30
35305;DHT22;26433;48.034;-1.764;2022-08-19T15:33:07;23.20;90.60
35305;DHT22;26433;48.034;-1.764;2022-08-19T15:38:11;23.00;91.00
35305;DHT22;26433;48.034;-1.764;2022-08-19T15:43:17;22.90;91.20
35305;DHT22;26433;48.034;-1.764;2022-08-19T15:48:22;22.80;91.20
35305;DHT22;26433;48.034;-1.764;2022-08-19T15:53:26;22.70;91.30
35305;DHT22;26433;48.034;-1.764;2022-08-19T15:58:31;22.60;91.30
35305;DHT22;26433;48.034;-1.764;2022-08-19T16:03:53;22.50;91.30
35305;DHT22;26433;48.034;-1.764;2022-08-19T16:09:18;22.40;91.50
35305;DHT22;26433;48.034;-1.764;2022-08-19T16:14:31;22.20;91.60
35305;DHT22;26433;48.034;-1.764;2022-08-19T16:19:36;22.00;91.70
35305;DHT22;26433;48.034;-1.764;2022-08-19T16:24:40;22.00;91.80
35305;DHT22;26433;48.034;-1.764;2022-08-19T16:29:45;22.00;91.60
35305;DHT22;26433;48.034;-1.764;2022-08-19T16:34:49;21.90;91.50
35305;DHT22;26433;48.034;-1.764;2022-08-19T16:39:52;21.80;91.60
35305;DHT22;26433;48.034;-1.764;2022-08-19T16:44:58;21.80;91.70
35305;DHT22;26433;48.034;-1.764;2022-08-19T16:50:02;21.80;91.70
35305;DHT22;26433;48.034;-1.764;2022-08-19T16:55:08;21.80;91.60
35305;DHT22;26433;48.034;-1.764;2022-08-19T17:00:14;21.80;91.60
35305;DHT22;26433;48.034;-1.764;2022-08-19T17:05:18;21.90;91.50
35305;DHT22;26433;48.034;-1.764;2022-08-19T17:10:21;22.00;91.50
35305;DHT22;26433;48.034;-1.764;2022-08-19T17:15:26;22.10;91.40
35305;DHT22;26433;48.034;-1.764;2022-08-19T17:20:30;22.00;91.40
35305;DHT22;26433;48.034;-1.764;2022-08-19T17:25:35;22.10;91.40
35305;DHT22;26433;48.034;-1.764;2022-08-19T17:30:41;22.10;91.40
35305;DHT22;26433;48.034;-1.764;2022-08-19T17:35:46;22.00;91.40
35305;DHT22;26433;48.034;-1.764;2022-08-19T17:40:50;22.00;91.60
35305;DHT22;26433;48.034;-1.764;2022-08-19T17:45:55;22.00;91.60
35305;DHT22;26433;48.034;-1.764;2022-08-19T17:50:58;22.00;91.70
35305;DHT22;26433;48.034;-1.764;2022-08-19T17:56:02;22.00;91.60
35305;DHT22;26433;48.034;-1.764;2022-08-19T18:01:09;22.10;91.60
35305;DHT22;26433;48.034;-1.764;2022-08-19T18:06:14;22.20;91.60
35305;DHT22;26433;48.034;-1.764;2022-08-19T18:11:18;22.20;91.50
35305;DHT22;26433;48.034;-1.764;2022-08-19T18:16:24;22.20;91.50
35305;DHT22;26433;48.034;-1.764;2022-08-19T18:21:27;22.30;91.50
35305;DHT22;26433;48.034;-1.764;2022-08-19T18:26:33;22.20;91.40
35305;DHT22;26433;48.034;-1.764;2022-08-19T18:31:38;22.20;91.50
35305;DHT22;26433;48.034;-1.764;2022-08-19T18:36:41;22.10;91.70
35305;DHT22;26433;48.034;-1.764;2022-08-19T18:41:55;22.10;91.70
35305;DHT22;26433;48.034;-1.764;2022-08-19T18:47:17;22.00;91.80
35305;DHT22;26433;48.034;-1.764;2022-08-19T18:52:38;21.80;92.00
35305;DHT22;26433;48.034;-1.764;2022-08-19T18:57:42;21.80;92.10
35305;DHT22;26433;48.034;-1.764;2022-08-19T19:02:47;21.70;92.20
35305;DHT22;26433;48.034;-1.764;2022-08-19T19:07:51;21.60;92.30
35305;DHT22;26433;48.034;-1.764;2022-08-19T19:12:55;21.50;92.40
35305;DHT22;26433;48.034;-1.764;2022-08-19T19:18:00;21.50;92.50
35305;DHT22;26433;48.034;-1.764;2022-08-19T19:23:04;21.50;92.50
35305;DHT22;26433;48.034;-1.764;2022-08-19T19:28:07;21.40;92.50
35305;DHT22;26433;48.034;-1.764;2022-08-19T19:33:18;21.20;92.60
35305;DHT22;26433;48.034;-1.764;2022-08-19T19:38:22;21.10;92.80
35305;DHT22;26433;48.034;-1.764;2022-08-19T19:43:25;21.10;92.80
35305;DHT22;26433;48.034;-1.764;2022-08-19T19:48:37;21.00;92.80
35305;DHT22;26433;48.034;-1.764;2022-08-19T19:53:41;20.90;92.90
35305;DHT22;26433;48.034;-1.764;2022-08-19T19:58:44;20.70;93.00
35305;DHT22;26433;48.034;-1.764;2022-08-19T20:03:53;20.60;93.10
35305;DHT22;26433;48.034;-1.764;2022-08-19T20:08:56;20.40;93.20
35305;DHT22;26433;48.034;-1.764;2022-08-19T20:14:23;20.30;93.50
35305;DHT22;26433;48.034;-1.764;2022-08-19T20:19:30;20.30;93.50
35305;DHT22;26433;48.034;-1.764;2022-08-19T20:24:35;20.20;93.50
35305;DHT22;26433;48.034;-1.764;2022-08-19T20:29:40;20.20;93.50
35305;DHT22;26433;48.034;-1.764;2022-08-19T20:34:47;20.10;93.50
35305;DHT22;26433;48.034;-1.764;2022-08-19T20:39:51;20.00;93.60
35305;DHT22;26433;48.034;-1.764;2022-08-19T20:44:55;20.00;93.60
35305;DHT22;26433;48.034;-1.764;2022-08-19T20:50:00;19.90;93.50
35305;DHT22;26433;48.034;-1.764;2022-08-19T20:55:04;19.80;93.60
35305;DHT22;26433;48.034;-1.764;2022-08-19T21:00:09;19.60;93.70
35305;DHT22;26433;48.034;-1.764;2022-08-19T21:05:15;19.50;93.80
35305;DHT22;26433;48.034;-1.764;2022-08-19T21:10:19;19.40;93.80
35305;DHT22;26433;48.034;-1.764;2022-08-19T21:15:22;19.30;93.70
35305;DHT22;26433;48.034;-1.764;2022-08-19T21:20:28;19.20;93.70
35305;DHT22;26433;48.034;-1.764;2022-08-19T21:25:31;19.10;93.70
35305;DHT22;26433;48.034;-1.764;2022-08-19T21:30:35;18.90;93.70
35305;DHT22;26433;48.034;-1.764;2022-08-19T21:35:40;18.90;93.80
35305;DHT22;26433;48.034;-1.764;2022-08-19T21:40:44;18.70;93.70
35305;DHT22;26433;48.034;-1.764;2022-08-19T21:45:47;18.60;93.90
35305;DHT22;26433;48.034;-1.764;2022-08-19T21:50:53;18.50;93.80
35305;DHT22;26433;48.034;-1.764;2022-08-19T21:55:57;18.50;93.80
35305;DHT22;26433;48.034;-1.764;2022-08-19T22:01:01;18.40;93.70
35305;DHT22;26433;48.034;-1.764;2022-08-19T22:06:09;18.30;93.70
35305;DHT22;26433;48.034;-1.764;2022-08-19T22:11:12;18.30;93.60
35305;DHT22;26433;48.034;-1.764;2022-08-19T22:16:16;18.20;93.60
35305;DHT22;26433;48.034;-1.764;2022-08-19T22:21:21;18.20;93.60
35305;DHT22;26433;48.034;-1.764;2022-08-19T22:26:41;18.20;93.50
35305;DHT22;26433;48.034;-1.764;2022-08-19T22:31:45;18.20;93.40
35305;DHT22;26433;48.034;-1.764;2022-08-19T22:37:00;18.30;93.40
35305;DHT22;26433;48.034;-1.764;2022-08-19T22:42:04;18.30;93.40
35305;DHT22;26433;48.034;-1.764;2022-08-19T22:47:08;18.40;93.20
35305;DHT22;26433;48.034;-1.764;2022-08-19T22:52:15;18.40;93.20
35305;DHT22;26433;48.034;-1.764;2022-08-19T22:57:22;18.40;93.20
35305;DHT22;26433;48.034;-1.764;2022-08-19T23:02:29;18.40;93.20
35305;DHT22;26433;48.034;-1.764;2022-08-19T23:07:35;18.40;93.20
35305;DHT22;26433;48.034;-1.764;2022-08-19T23:12:42;18.40;93.10
35305;DHT22;26433;48.034;-1.764;2022-08-19T23:17:46;18.40;93.20
35305;DHT22;26433;48.034;-1.764;2022-08-19T23:22:51;18.50;93.10
35305;DHT22;26433;48.034;-1.764;2022-08-19T23:27:55;18.50;93.10
35305;DHT22;26433;48.034;-1.764;2022-08-19T23:33:18;18.50;93.00
35305;DHT22;26433;48.034;-1.764;2022-08-19T23:38:28;18.50;93.00
35305;DHT22;26433;48.034;-1.764;2022-08-19T23:43:33;18.50;93.00
35305;DHT22;26433;48.034;-1.764;2022-08-19T23:48:38;18.50;93.00
35305;DHT22;26433;48.034;-1.764;2022-08-19T23:53:43;18.50;93.10
35305;DHT22;26433;48.034;-1.764;2022-08-19T23:58:47;18.60;93.00
